Terminal Aerodrome Forecast
Issued by NWS

Home | Current Version | Previous Version | Text Only | Print | Product List | Glossary On
Versions: 1 2 3 4 5 6 7 8 9 10
401
FTUS45 KVEF 271125
TAFHND
TAF
KHND 271125Z 2712/2812 21008KT P6SM SCT250
     FM271400 35010G16KT P6SM SCT250
     FM280200 02008KT P6SM SCT250=

USA.gov is the U.S. government's official web portal to all federal, state and local government web resources and services.